Ohshima Kazumaru — JD2908 — position and weather

sailwx.info

Track history (hours):
 
Tides and Currents Weather Stations Pressure Air Temp Water Temp Dewpoint Dewpoint Depression Visibility Wind Speed Wind Dir Waves Ship Positions

Ohshima Kazumaru

Last reported at 2015-Jan-23 12:30 UTC. Time now 2015-Jan-26 06:22 UTC.
Position N 34°49' E 139°11'.

Length 69 m; draft 4 m.

Type: Cargo ship. MMSI: 431000925.

Date/timePositionNaut miles runAvg speedWind from/ knotsBaromVisibWave heightAir tempDewpointWater temp
2015-Jan-23 12:30N 34°49' E 139°11'1612.3
2015-Jan-23 11:09N 34°59' E 139°27'812.6
2015-Jan-23 10:33N 35°04' E 139°34'1212.4
2015-Jan-23 09:34N 35°12' E 139°46'1211.8
2015-Jan-23 08:34N 35°23' E 139°42'9 9.1
2015-Jan-23 07:33N 35°32' E 139°47'  
2015-Jan-20 22:26N 35°32' E 139°47'2 1.3
2015-Jan-20 21:05N 35°31' E 139°49'0 0.0
2015-Jan-20 20:33N 35°31' E 139°49'0 0.0
2015-Jan-20 19:33N 35°31' E 139°49'0 0.0
2015-Jan-20 18:33N 35°31' E 139°49'5 4.7
2015-Jan-20 17:33N 35°26' E 139°47'1111.5
2015-Jan-20 16:33N 35°15' E 139°47'1111.2
2015-Jan-20 15:34N 35°04' E 139°42'1010.4
2015-Jan-20 14:34N 34°58' E 139°33'  
2015-Jan-17 23:30N 34°08' E 134°46'225 8.7
2015-Jan-16 21:31N 34°55' E 139°13'10 9.8
2015-Jan-16 20:32N 35°00' E 139°23'9 8.6
2015-Jan-16 19:31N 35°04' E 139°33'8 8.7
2015-Jan-16 18:33N 35°07' E 139°42'10 9.6
2015-Jan-16 17:33N 35°16' E 139°45'1010.0
2015-Jan-16 16:33N 35°26' E 139°45'4 0.1
2015-Jan-14 21:12N 35°29' E 139°49'811.9
2015-Jan-14 20:34N 35°22' E 139°45'1111.1
2015-Jan-14 19:33N 35°10' E 139°46'1212.3
2015-Jan-14 18:33N 35°01' E 139°37'  
Track history (hours):
 
Tides and Currents Weather Stations Pressure Air Temp Water Temp Dewpoint Dewpoint Depression Visibility Wind Speed Wind Dir Waves Ship Positions

Ohshima Kazumaru

Last reported at 2015-Jan-23 12:30 UTC. Time now 2015-Jan-26 06:22 UTC.
Position N 34°49' E 139°11'.

Length 69 m; draft 4 m.

Type: Cargo ship. MMSI: 431000925.

Date/timePositionNaut miles runAvg speedWind from/ knotsBaromVisibWave heightAir tempDewpointWater temp
2015-Jan-23 12:30N 34°49' E 139°11'1612.3
2015-Jan-23 11:09N 34°59' E 139°27'812.6
2015-Jan-23 10:33N 35°04' E 139°34'1212.4
2015-Jan-23 09:34N 35°12' E 139°46'1211.8
2015-Jan-23 08:34N 35°23' E 139°42'9 9.1
2015-Jan-23 07:33N 35°32' E 139°47'  
2015-Jan-20 22:26N 35°32' E 139°47'2 1.3
2015-Jan-20 21:05N 35°31' E 139°49'0 0.0
2015-Jan-20 20:33N 35°31' E 139°49'0 0.0
2015-Jan-20 19:33N 35°31' E 139°49'0 0.0
2015-Jan-20 18:33N 35°31' E 139°49'5 4.7
2015-Jan-20 17:33N 35°26' E 139°47'1111.5
2015-Jan-20 16:33N 35°15' E 139°47'1111.2
2015-Jan-20 15:34N 35°04' E 139°42'1010.4
2015-Jan-20 14:34N 34°58' E 139°33'  
2015-Jan-17 23:30N 34°08' E 134°46'225 8.7
2015-Jan-16 21:31N 34°55' E 139°13'10 9.8
2015-Jan-16 20:32N 35°00' E 139°23'9 8.6
2015-Jan-16 19:31N 35°04' E 139°33'8 8.7
2015-Jan-16 18:33N 35°07' E 139°42'10 9.6
2015-Jan-16 17:33N 35°16' E 139°45'1010.0
2015-Jan-16 16:33N 35°26' E 139°45'4 0.1
2015-Jan-14 21:12N 35°29' E 139°49'811.9
2015-Jan-14 20:34N 35°22' E 139°45'1111.1
2015-Jan-14 19:33N 35°10' E 139°46'1212.3
2015-Jan-14 18:33N 35°01' E 139°37'  

Dump ship's entire track history